sensor_id;sensor_type;location;lat;lon;timestamp;pressure;altitude;pressure_sealevel;temperature;humidity
52735;BME280;38631;47.572;10.704;2022-10-16T00:02:21;92683.28;;;10.69;100.00
52735;BME280;38631;47.572;10.704;2022-10-16T00:04:46;92685.16;;;10.91;100.00
52735;BME280;38631;47.572;10.704;2022-10-16T00:07:12;92688.28;;;10.93;100.00
52735;BME280;38631;47.572;10.704;2022-10-16T00:09:37;92686.22;;;10.90;100.00
52735;BME280;38631;47.572;10.704;2022-10-16T00:12:02;92685.81;;;10.97;100.00
52735;BME280;38631;47.572;10.704;2022-10-16T00:14:29;92693.59;;;10.93;100.00
52735;BME280;38631;47.572;10.704;2022-10-16T00:16:55;92691.00;;;11.02;100.00
52735;BME280;38631;47.572;10.704;2022-10-16T00:19:20;92700.25;;;11.05;100.00
52735;BME280;38631;47.572;10.704;2022-10-16T00:21:45;92694.44;;;11.02;100.00
52735;BME280;38631;47.572;10.704;2022-10-16T00:24:11;92698.06;;;11.07;100.00
52735;BME280;38631;47.572;10.704;2022-10-16T00:26:38;92695.28;;;11.12;100.00
52735;BME280;38631;47.572;10.704;2022-10-16T00:29:04;92705.69;;;10.99;100.00
52735;BME280;38631;47.572;10.704;2022-10-16T00:31:30;92697.72;;;10.99;100.00
52735;BME280;38631;47.572;10.704;2022-10-16T00:33:55;92694.50;;;10.89;100.00
52735;BME280;38631;47.572;10.704;2022-10-16T00:36:23;92695.06;;;10.77;100.00
52735;BME280;38631;47.572;10.704;2022-10-16T00:38:53;92700.16;;;10.96;100.00
52735;BME280;38631;47.572;10.704;2022-10-16T00:41:21;92704.13;;;10.98;100.00
52735;BME280;38631;47.572;10.704;2022-10-16T00:46:31;92711.25;;;10.89;100.00
52735;BME280;38631;47.572;10.704;2022-10-16T00:49:04;92704.13;;;10.98;100.00
52735;BME280;38631;47.572;10.704;2022-10-16T00:51:31;92709.47;;;11.07;100.00
52735;BME280;38631;47.572;10.704;2022-10-16T00:53:57;92716.00;;;11.01;100.00
52735;BME280;38631;47.572;10.704;2022-10-16T00:56:23;92712.91;;;10.85;100.00
52735;BME280;38631;47.572;10.704;2022-10-16T00:58:48;92717.69;;;10.97;100.00
52735;BME280;38631;47.572;10.704;2022-10-16T01:01:14;92717.88;;;11.00;100.00
52735;BME280;38631;47.572;10.704;2022-10-16T01:03:39;92724.50;;;10.67;100.00
52735;BME280;38631;47.572;10.704;2022-10-16T01:09:16;92719.38;;;10.70;100.00
52735;BME280;38631;47.572;10.704;2022-10-16T01:17:11;92717.28;;;10.81;100.00
52735;BME280;38631;47.572;10.704;2022-10-16T01:22:23;92707.56;;;10.99;100.00
52735;BME280;38631;47.572;10.704;2022-10-16T01:24:53;92712.44;;;11.06;100.00
52735;BME280;38631;47.572;10.704;2022-10-16T01:27:26;92710.75;;;11.10;100.00
52735;BME280;38631;47.572;10.704;2022-10-16T01:29:56;92712.38;;;11.19;100.00
52735;BME280;38631;47.572;10.704;2022-10-16T01:34:59;92710.25;;;11.08;100.00
52735;BME280;38631;47.572;10.704;2022-10-16T01:38:36;92716.28;;;11.22;100.00
52735;BME280;38631;47.572;10.704;2022-10-16T01:40:46;92712.53;;;11.23;100.00
52735;BME280;38631;47.572;10.704;2022-10-16T01:43:15;92712.59;;;11.32;100.00
52735;BME280;38631;47.572;10.704;2022-10-16T01:45:44;92719.78;;;11.31;100.00
52735;BME280;38631;47.572;10.704;2022-10-16T01:48:14;92725.03;;;11.22;100.00
52735;BME280;38631;47.572;10.704;2022-10-16T01:50:44;92724.56;;;11.20;100.00
52735;BME280;38631;47.572;10.704;2022-10-16T01:53:12;92726.41;;;10.89;100.00
52735;BME280;38631;47.572;10.704;2022-10-16T01:55:41;92732.41;;;10.80;100.00
52735;BME280;38631;47.572;10.704;2022-10-16T01:58:12;92726.81;;;11.05;100.00
52735;BME280;38631;47.572;10.704;2022-10-16T02:00:39;92721.25;;;10.92;100.00
52735;BME280;38631;47.572;10.704;2022-10-16T02:03:07;92721.00;;;10.80;100.00
52735;BME280;38631;47.572;10.704;2022-10-16T02:05:39;92701.47;;;10.76;100.00
52735;BME280;38631;47.572;10.704;2022-10-16T02:08:05;92707.84;;;10.97;100.00
52735;BME280;38631;47.572;10.704;2022-10-16T02:10:31;92705.69;;;10.99;100.00
52735;BME280;38631;47.572;10.704;2022-10-16T02:13:08;92709.88;;;11.00;100.00
52735;BME280;38631;47.572;10.704;2022-10-16T02:15:34;92700.25;;;11.05;100.00
52735;BME280;38631;47.572;10.704;2022-10-16T02:18:02;92694.94;;;11.36;100.00
52735;BME280;38631;47.572;10.704;2022-10-16T02:20:33;92698.41;;;11.36;100.00
52735;BME280;38631;47.572;10.704;2022-10-16T02:23:01;92700.72;;;11.38;100.00
52735;BME280;38631;47.572;10.704;2022-10-16T02:25:31;92705.75;;;11.39;100.00
52735;BME280;38631;47.572;10.704;2022-10-16T02:30:30;92705.13;;;11.42;100.00
52735;BME280;38631;47.572;10.704;2022-10-16T02:32:59;92705.91;;;11.43;100.00
52735;BME280;38631;47.572;10.704;2022-10-16T02:35:25;92711.44;;;11.46;100.00
52735;BME280;38631;47.572;10.704;2022-10-16T02:37:53;92702.00;;;11.40;100.00
52735;BME280;38631;47.572;10.704;2022-10-16T02:40:19;92695.63;;;11.50;100.00
52735;BME280;38631;47.572;10.704;2022-10-16T02:42:50;92691.16;;;11.68;100.00
52735;BME280;38631;47.572;10.704;2022-10-16T02:45:16;92691.91;;;11.51;100.00
52735;BME280;38631;47.572;10.704;2022-10-16T02:47:41;92688.44;;;11.51;100.00
52735;BME280;38631;47.572;10.704;2022-10-16T02:50:07;92692.19;;;11.50;100.00
52735;BME280;38631;47.572;10.704;2022-10-16T02:52:32;92705.56;;;11.36;100.00
52735;BME280;38631;47.572;10.704;2022-10-16T02:54:58;92701.47;;;11.30;100.00
52735;BME280;38631;47.572;10.704;2022-10-16T02:57:23;92711.69;;;11.36;100.00
52735;BME280;38631;47.572;10.704;2022-10-16T02:59:48;92725.88;;;11.32;100.00
52735;BME280;38631;47.572;10.704;2022-10-16T03:02:14;92721.38;;;11.41;100.00
52735;BME280;38631;47.572;10.704;2022-10-16T03:04:39;92715.00;;;11.42;100.00
52735;BME280;38631;47.572;10.704;2022-10-16T03:07:05;92724.97;;;11.36;100.00
52735;BME280;38631;47.572;10.704;2022-10-16T03:09:30;92716.88;;;11.41;100.00
52735;BME280;38631;47.572;10.704;2022-10-16T03:11:55;92716.75;;;11.46;100.00
52735;BME280;38631;47.572;10.704;2022-10-16T03:14:21;92713.41;;;11.41;100.00
52735;BME280;38631;47.572;10.704;2022-10-16T03:16:46;92707.66;;;11.48;100.00
52735;BME280;38631;47.572;10.704;2022-10-16T03:19:11;92720.47;;;11.45;100.00
52735;BME280;38631;47.572;10.704;2022-10-16T03:21:37;92704.97;;;11.39;100.00
52735;BME280;38631;47.572;10.704;2022-10-16T03:24:02;92709.31;;;11.35;100.00
52735;BME280;38631;47.572;10.704;2022-10-16T03:26:28;92712.50;;;11.45;100.00
52735;BME280;38631;47.572;10.704;2022-10-16T03:28:53;92713.91;;;11.43;100.00
52735;BME280;38631;47.572;10.704;2022-10-16T03:31:18;92715.69;;;11.56;100.00
52735;BME280;38631;47.572;10.704;2022-10-16T03:33:44;92709.56;;;11.56;100.00
52735;BME280;38631;47.572;10.704;2022-10-16T03:36:09;92700.34;;;11.53;100.00
52735;BME280;38631;47.572;10.704;2022-10-16T03:38:34;92705.28;;;11.77;100.00
52735;BME280;38631;47.572;10.704;2022-10-16T03:41:00;92703.63;;;11.90;100.00
52735;BME280;38631;47.572;10.704;2022-10-16T03:43:25;92701.75;;;12.65;94.50
52735;BME280;38631;47.572;10.704;2022-10-16T03:45:51;92706.25;;;12.56;95.59
52735;BME280;38631;47.572;10.704;2022-10-16T03:48:20;92698.25;;;12.39;96.77
52735;BME280;38631;47.572;10.704;2022-10-16T03:50:45;92705.66;;;12.59;93.94
52735;BME280;38631;47.572;10.704;2022-10-16T03:53:13;92711.78;;;12.60;94.49
52735;BME280;38631;47.572;10.704;2022-10-16T03:55:41;92711.13;;;12.63;94.75
52735;BME280;38631;47.572;10.704;2022-10-16T03:58:07;92707.38;;;12.90;91.02
52735;BME280;38631;47.572;10.704;2022-10-16T04:00:32;92713.81;;;12.63;94.47
52735;BME280;38631;47.572;10.704;2022-10-16T04:02:57;92716.00;;;12.52;94.24
52735;BME280;38631;47.572;10.704;2022-10-16T04:05:23;92721.66;;;12.59;94.27
52735;BME280;38631;47.572;10.704;2022-10-16T04:07:49;92717.63;;;12.13;100.00
52735;BME280;38631;47.572;10.704;2022-10-16T04:10:14;92708.25;;;12.16;98.14
52735;BME280;38631;47.572;10.704;2022-10-16T04:12:39;92711.78;;;12.77;91.18
52735;BME280;38631;47.572;10.704;2022-10-16T04:15:05;92714.44;;;12.86;90.41
52735;BME280;38631;47.572;10.704;2022-10-16T04:17:30;92715.38;;;12.98;89.69
52735;BME280;38631;47.572;10.704;2022-10-16T04:19:55;92715.38;;;12.98;90.80
52735;BME280;38631;47.572;10.704;2022-10-16T04:22:21;92712.22;;;12.53;95.75
52735;BME280;38631;47.572;10.704;2022-10-16T04:24:46;92705.44;;;12.12;100.00
52735;BME280;38631;47.572;10.704;2022-10-16T04:27:11;92709.59;;;11.87;100.00
52735;BME280;38631;47.572;10.704;2022-10-16T04:29:37;92716.09;;;11.81;100.00
52735;BME280;38631;47.572;10.704;2022-10-16T04:32:02;92719.44;;;11.86;100.00
52735;BME280;38631;47.572;10.704;2022-10-16T04:34:28;92717.34;;;11.83;100.00
52735;BME280;38631;47.572;10.704;2022-10-16T04:36:53;92708.09;;;11.72;100.00
52735;BME280;38631;47.572;10.704;2022-10-16T04:39:18;92717.19;;;11.80;100.00
52735;BME280;38631;47.572;10.704;2022-10-16T04:41:44;92709.97;;;12.12;97.83
52735;BME280;38631;47.572;10.704;2022-10-16T04:44:09;92708.00;;;13.04;89.49
52735;BME280;38631;47.572;10.704;2022-10-16T04:46:34;92695.25;;;13.18;87.36
52735;BME280;38631;47.572;10.704;2022-10-16T04:49:00;92699.34;;;13.33;86.70
52735;BME280;38631;47.572;10.704;2022-10-16T04:51:25;92680.16;;;13.49;84.81
52735;BME280;38631;47.572;10.704;2022-10-16T04:53:52;92678.00;;;13.33;85.79
52735;BME280;38631;47.572;10.704;2022-10-16T04:56:18;92677.59;;;13.70;82.37
52735;BME280;38631;47.572;10.704;2022-10-16T04:58:43;92671.84;;;13.89;81.27
52735;BME280;38631;47.572;10.704;2022-10-16T05:01:09;92669.28;;;13.63;83.25
52735;BME280;38631;47.572;10.704;2022-10-16T05:03:34;92683.16;;;13.47;84.19
52735;BME280;38631;47.572;10.704;2022-10-16T05:05:59;92679.72;;;13.38;84.04
52735;BME280;38631;47.572;10.704;2022-10-16T05:08:25;92680.09;;;13.66;82.07
52735;BME280;38631;47.572;10.704;2022-10-16T05:10:50;92675.81;;;13.74;81.16
52735;BME280;38631;47.572;10.704;2022-10-16T05:13:15;92682.59;;;13.71;81.46
52735;BME280;38631;47.572;10.704;2022-10-16T05:15:41;92679.53;;;13.90;79.88
52735;BME280;38631;47.572;10.704;2022-10-16T05:18:06;92678.97;;;14.35;76.09
52735;BME280;38631;47.572;10.704;2022-10-16T05:20:32;92681.38;;;14.58;75.14
52735;BME280;38631;47.572;10.704;2022-10-16T05:22:57;92681.00;;;14.09;79.01
52735;BME280;38631;47.572;10.704;2022-10-16T05:25:22;92676.19;;;14.02;78.35
52735;BME280;38631;47.572;10.704;2022-10-16T05:27:48;92685.06;;;14.15;77.48
52735;BME280;38631;47.572;10.704;2022-10-16T05:30:15;92694.50;;;13.74;80.36
52735;BME280;38631;47.572;10.704;2022-10-16T05:32:40;92709.31;;;13.54;82.19
52735;BME280;38631;47.572;10.704;2022-10-16T05:35:06;92707.81;;;13.35;83.60
52735;BME280;38631;47.572;10.704;2022-10-16T05:37:32;92714.06;;;13.48;82.71
52735;BME280;38631;47.572;10.704;2022-10-16T05:39:57;92711.88;;;14.27;76.03
52735;BME280;38631;47.572;10.704;2022-10-16T05:42:22;92726.78;;;14.28;76.44
52735;BME280;38631;47.572;10.704;2022-10-16T05:44:48;92733.09;;;13.85;81.01
52735;BME280;38631;47.572;10.704;2022-10-16T05:47:13;92739.88;;;13.74;80.11
52735;BME280;38631;47.572;10.704;2022-10-16T05:49:39;92735.84;;;13.68;81.94
52735;BME280;38631;47.572;10.704;2022-10-16T05:52:05;92740.09;;;13.51;82.94
52735;BME280;38631;47.572;10.704;2022-10-16T05:54:30;92745.16;;;13.35;84.05
52735;BME280;38631;47.572;10.704;2022-10-16T05:56:55;92749.00;;;13.64;81.06
52735;BME280;38631;47.572;10.704;2022-10-16T05:59:21;92745.94;;;13.45;83.38
52735;BME280;38631;47.572;10.704;2022-10-16T06:01:46;92754.09;;;13.31;85.48
52735;BME280;38631;47.572;10.704;2022-10-16T06:04:11;92770.41;;;13.21;87.23
52735;BME280;38631;47.572;10.704;2022-10-16T06:06:37;92776.03;;;12.93;90.43
52735;BME280;38631;47.572;10.704;2022-10-16T06:09:02;92777.47;;;12.82;91.82
52735;BME280;38631;47.572;10.704;2022-10-16T06:11:30;92775.06;;;12.71;93.53
52735;BME280;38631;47.572;10.704;2022-10-16T06:13:57;92779.28;;;12.64;94.46
52735;BME280;38631;47.572;10.704;2022-10-16T06:16:24;92786.34;;;12.60;95.13
52735;BME280;38631;47.572;10.704;2022-10-16T06:18:55;92784.78;;;12.50;95.99
52735;BME280;38631;47.572;10.704;2022-10-16T06:21:26;92796.06;;;12.47;96.80
52735;BME280;38631;47.572;10.704;2022-10-16T06:23:52;92796.53;;;12.49;97.52
52735;BME280;38631;47.572;10.704;2022-10-16T06:26:19;92792.44;;;12.43;98.70
52735;BME280;38631;47.572;10.704;2022-10-16T06:28:45;92800.84;;;12.36;98.93
52735;BME280;38631;47.572;10.704;2022-10-16T06:31:12;92805.44;;;12.44;98.42
52735;BME280;38631;47.572;10.704;2022-10-16T06:33:38;92819.09;;;12.51;97.95
52735;BME280;38631;47.572;10.704;2022-10-16T06:36:08;92812.97;;;12.51;97.45
52735;BME280;38631;47.572;10.704;2022-10-16T06:38:35;92820.66;;;12.52;97.49
52735;BME280;38631;47.572;10.704;2022-10-16T06:41:00;92822.69;;;12.56;97.44
52735;BME280;38631;47.572;10.704;2022-10-16T06:43:27;92829.63;;;12.57;99.17
52735;BME280;38631;47.572;10.704;2022-10-16T06:45:54;92822.84;;;12.50;100.00
52735;BME280;38631;47.572;10.704;2022-10-16T06:48:20;92831.31;;;12.52;99.34
52735;BME280;38631;47.572;10.704;2022-10-16T06:50:59;92829.63;;;12.57;98.42
52735;BME280;38631;47.572;10.704;2022-10-16T06:53:26;92831.47;;;12.56;98.82
52735;BME280;38631;47.572;10.704;2022-10-16T06:55:52;92843.38;;;12.50;100.00
52735;BME280;38631;47.572;10.704;2022-10-16T06:58:18;92838.34;;;12.48;100.00
52735;BME280;38631;47.572;10.704;2022-10-16T07:00:43;92844.47;;;12.49;99.54
52735;BME280;38631;47.572;10.704;2022-10-16T07:03:09;92846.19;;;12.53;100.00
52735;BME280;38631;47.572;10.704;2022-10-16T07:05:38;92852.97;;;12.60;99.62
52735;BME280;38631;47.572;10.704;2022-10-16T07:08:04;92854.72;;;12.64;100.00
52735;BME280;38631;47.572;10.704;2022-10-16T07:10:30;92858.59;;;12.58;100.00
52735;BME280;38631;47.572;10.704;2022-10-16T07:12:56;92862.84;;;12.59;100.00
52735;BME280;38631;47.572;10.704;2022-10-16T07:15:21;92871.13;;;12.58;100.00
52735;BME280;38631;47.572;10.704;2022-10-16T07:17:47;92865.50;;;12.59;100.00
52735;BME280;38631;47.572;10.704;2022-10-16T07:20:12;92873.03;;;12.66;100.00
52735;BME280;38631;47.572;10.704;2022-10-16T07:22:37;92880.09;;;12.62;100.00
52735;BME280;38631;47.572;10.704;2022-10-16T07:25:03;92875.84;;;12.61;100.00
52735;BME280;38631;47.572;10.704;2022-10-16T07:27:28;92885.88;;;12.64;100.00
52735;BME280;38631;47.572;10.704;2022-10-16T07:29:54;92890.25;;;12.60;100.00
52735;BME280;38631;47.572;10.704;2022-10-16T07:32:19;92891.53;;;12.62;100.00
52735;BME280;38631;47.572;10.704;2022-10-16T07:34:44;92898.75;;;12.70;100.00
52735;BME280;38631;47.572;10.704;2022-10-16T07:37:10;92902.19;;;12.71;100.00
52735;BME280;38631;47.572;10.704;2022-10-16T07:39:36;92899.44;;;12.85;100.00
52735;BME280;38631;47.572;10.704;2022-10-16T07:42:01;92894.09;;;12.93;100.00
52735;BME280;38631;47.572;10.704;2022-10-16T07:44:27;92891.28;;;12.98;100.00
52735;BME280;38631;47.572;10.704;2022-10-16T07:46:52;92895.69;;;13.03;100.00
52735;BME280;38631;47.572;10.704;2022-10-16T07:49:18;92894.00;;;13.07;99.94
52735;BME280;38631;47.572;10.704;2022-10-16T07:51:43;92889.59;;;13.11;99.32
52735;BME280;38631;47.572;10.704;2022-10-16T07:54:09;92897.78;;;13.15;98.85
52735;BME280;38631;47.572;10.704;2022-10-16T07:56:35;92902.00;;;13.16;99.38
52735;BME280;38631;47.572;10.704;2022-10-16T07:59:00;92903.09;;;13.24;100.00
52735;BME280;38631;47.572;10.704;2022-10-16T08:01:25;92902.63;;;13.22;99.38
52735;BME280;38631;47.572;10.704;2022-10-16T08:03:52;92913.81;;;13.32;100.00
52735;BME280;38631;47.572;10.704;2022-10-16T08:06:18;92913.97;;;13.36;99.39
52735;BME280;38631;47.572;10.704;2022-10-16T08:08:44;92906.75;;;13.36;99.38
52735;BME280;38631;47.572;10.704;2022-10-16T08:11:09;92910.69;;;13.48;99.35
52735;BME280;38631;47.572;10.704;2022-10-16T08:13:35;92912.28;;;13.75;96.96
52735;BME280;38631;47.572;10.704;2022-10-16T08:16:01;92911.16;;;13.76;96.32
52735;BME280;38631;47.572;10.704;2022-10-16T08:18:26;92909.59;;;13.75;96.83
52735;BME280;38631;47.572;10.704;2022-10-16T08:20:56;92905.38;;;13.82;93.69
52735;BME280;38631;47.572;10.704;2022-10-16T08:23:22;92913.78;;;14.19;94.99
52735;BME280;38631;47.572;10.704;2022-10-16T08:25:48;92913.50;;;14.03;94.18
52735;BME280;38631;47.572;10.704;2022-10-16T08:28:13;92921.03;;;14.01;94.01
52735;BME280;38631;47.572;10.704;2022-10-16T08:30:38;92921.97;;;14.05;94.23
52735;BME280;38631;47.572;10.704;2022-10-16T08:33:04;92930.63;;;13.94;92.52
52735;BME280;38631;47.572;10.704;2022-10-16T08:35:31;92930.13;;;14.09;89.61
52735;BME280;38631;47.572;10.704;2022-10-16T08:37:56;92936.88;;;14.07;89.26
52735;BME280;38631;47.572;10.704;2022-10-16T08:40:29;92945.81;;;14.28;88.17
52735;BME280;38631;47.572;10.704;2022-10-16T08:48:42;92948.44;;;15.01;88.33
52735;BME280;38631;47.572;10.704;2022-10-16T08:51:12;92951.81;;;15.19;87.06
52735;BME280;38631;47.572;10.704;2022-10-16T08:53:49;92953.19;;;14.96;86.53
52735;BME280;38631;47.572;10.704;2022-10-16T08:56:17;92958.41;;;15.51;83.28
52735;BME280;38631;47.572;10.704;2022-10-16T08:58:44;92962.88;;;15.68;83.37
52735;BME280;38631;47.572;10.704;2022-10-16T09:01:14;92965.63;;;15.30;86.95
52735;BME280;38631;47.572;10.704;2022-10-16T09:06:29;92964.34;;;16.08;81.53
52735;BME280;38631;47.572;10.704;2022-10-16T09:11:53;92971.16;;;16.17;81.11
52735;BME280;38631;47.572;10.704;2022-10-16T09:14:49;92977.75;;;16.41;82.02
52735;BME280;38631;47.572;10.704;2022-10-16T09:17:40;92977.84;;;16.11;85.76
52735;BME280;38631;47.572;10.704;2022-10-16T09:20:42;92981.09;;;16.38;84.61
52735;BME280;38631;47.572;10.704;2022-10-16T09:23:14;92962.69;;;16.15;83.74
52735;BME280;38631;47.572;10.704;2022-10-16T09:25:43;92974.44;;;16.02;86.08
52735;BME280;38631;47.572;10.704;2022-10-16T09:28:09;92968.78;;;15.83;83.22
52735;BME280;38631;47.572;10.704;2022-10-16T09:30:35;92977.25;;;15.85;82.93
52735;BME280;38631;47.572;10.704;2022-10-16T09:33:01;92969.09;;;15.81;84.42
52735;BME280;38631;47.572;10.704;2022-10-16T09:35:33;92978.38;;;16.05;85.06
52735;BME280;38631;47.572;10.704;2022-10-16T09:38:00;92967.03;;;16.08;84.24
52735;BME280;38631;47.572;10.704;2022-10-16T09:40:32;92970.53;;;16.20;85.12
52735;BME280;38631;47.572;10.704;2022-10-16T09:45:39;92979.97;;;16.39;82.08
52735;BME280;38631;47.572;10.704;2022-10-16T09:48:12;92978.25;;;16.55;81.51
52735;BME280;38631;47.572;10.704;2022-10-16T09:50:38;92983.19;;;16.66;80.72
52735;BME280;38631;47.572;10.704;2022-10-16T09:53:14;92976.34;;;17.01;80.86
52735;BME280;38631;47.572;10.704;2022-10-16T09:55:49;92971.31;;;17.00;77.98
52735;BME280;38631;47.572;10.704;2022-10-16T09:58:15;92974.22;;;17.07;78.34
52735;BME280;38631;47.572;10.704;2022-10-16T10:00:42;92974.56;;;17.30;79.00
52735;BME280;38631;47.572;10.704;2022-10-16T10:05:51;92971.09;;;17.30;73.97
52735;BME280;38631;47.572;10.704;2022-10-16T10:08:17;92970.44;;;17.33;73.02
52735;BME280;38631;47.572;10.704;2022-10-16T10:10:43;92976.47;;;17.42;72.16
52735;BME280;38631;47.572;10.704;2022-10-16T10:13:20;92977.38;;;17.58;72.31
52735;BME280;38631;47.572;10.704;2022-10-16T10:15:45;92976.84;;;17.28;75.59
52735;BME280;38631;47.572;10.704;2022-10-16T10:18:21;92973.69;;;17.38;76.39
52735;BME280;38631;47.572;10.704;2022-10-16T10:21:02;92973.91;;;17.09;76.78
52735;BME280;38631;47.572;10.704;2022-10-16T10:23:29;92974.78;;;17.13;78.07
52735;BME280;38631;47.572;10.704;2022-10-16T10:26:33;92971.47;;;17.16;75.75
52735;BME280;38631;47.572;10.704;2022-10-16T10:29:46;92970.22;;;17.38;72.56
52735;BME280;38631;47.572;10.704;2022-10-16T10:37:31;92962.03;;;17.59;71.51
52735;BME280;38631;47.572;10.704;2022-10-16T10:40:13;92967.97;;;17.64;72.00
52735;BME280;38631;47.572;10.704;2022-10-16T10:43:00;92969.66;;;17.57;70.50
52735;BME280;38631;47.572;10.704;2022-10-16T10:45:45;92963.91;;;17.70;71.01
52735;BME280;38631;47.572;10.704;2022-10-16T10:50:49;92965.59;;;17.75;71.10
52735;BME280;38631;47.572;10.704;2022-10-16T10:53:46;92958.44;;;17.55;69.48
52735;BME280;38631;47.572;10.704;2022-10-16T11:02:13;92961.19;;;17.95;65.08
52735;BME280;38631;47.572;10.704;2022-10-16T11:05:14;92964.66;;;17.96;64.87
52735;BME280;38631;47.572;10.704;2022-10-16T11:08:21;92960.44;;;17.95;64.03
52735;BME280;38631;47.572;10.704;2022-10-16T11:10:56;92967.59;;;17.90;67.52
52735;BME280;38631;47.572;10.704;2022-10-16T11:14:00;92960.66;;;17.89;68.64
52735;BME280;38631;47.572;10.704;2022-10-16T11:16:43;92957.66;;;17.91;67.67
52735;BME280;38631;47.572;10.704;2022-10-16T11:22:23;92947.09;;;17.98;60.54
52735;BME280;38631;47.572;10.704;2022-10-16T11:31:00;92941.84;;;18.74;56.00
52735;BME280;38631;47.572;10.704;2022-10-16T11:34:16;92944.78;;;18.69;56.86
52735;BME280;38631;47.572;10.704;2022-10-16T11:36:18;92938.25;;;18.54;56.42
52735;BME280;38631;47.572;10.704;2022-10-16T11:38:55;92941.06;;;18.73;56.70
52735;BME280;38631;47.572;10.704;2022-10-16T11:41:37;92941.97;;;18.49;57.48
52735;BME280;38631;47.572;10.704;2022-10-16T11:49:33;92943.34;;;18.87;57.63
52735;BME280;38631;47.572;10.704;2022-10-16T11:57:33;92943.72;;;18.57;60.05
52735;BME280;38631;47.572;10.704;2022-10-16T12:00:20;92931.47;;;18.44;58.82
52735;BME280;38631;47.572;10.704;2022-10-16T12:03:17;92929.72;;;18.80;57.71
52735;BME280;38631;47.572;10.704;2022-10-16T12:06:06;92927.47;;;18.98;57.95
52735;BME280;38631;47.572;10.704;2022-10-16T12:08:37;92924.31;;;18.96;57.77
52735;BME280;38631;47.572;10.704;2022-10-16T12:13:51;92925.16;;;18.68;58.11
52735;BME280;38631;47.572;10.704;2022-10-16T12:18:44;92918.59;;;18.97;59.54
52735;BME280;38631;47.572;10.704;2022-10-16T12:21:10;92914.88;;;19.02;57.53
52735;BME280;38631;47.572;10.704;2022-10-16T12:24:04;92916.94;;;18.93;57.76
52735;BME280;38631;47.572;10.704;2022-10-16T12:26:37;92928.09;;;18.91;55.90
52735;BME280;38631;47.572;10.704;2022-10-16T12:29:14;92928.59;;;18.97;56.82
52735;BME280;38631;47.572;10.704;2022-10-16T12:31:47;92923.38;;;19.04;56.82
52735;BME280;38631;47.572;10.704;2022-10-16T12:34:22;92924.69;;;18.94;58.04
52735;BME280;38631;47.572;10.704;2022-10-16T12:36:48;92923.03;;;19.06;56.25
52735;BME280;38631;47.572;10.704;2022-10-16T12:39:24;92919.13;;;18.87;56.06
52735;BME280;38631;47.572;10.704;2022-10-16T12:42:04;92915.03;;;18.93;55.36
52735;BME280;38631;47.572;10.704;2022-10-16T12:44:34;92918.53;;;18.94;56.14
52735;BME280;38631;47.572;10.704;2022-10-16T12:47:00;92917.81;;;18.97;55.79
52735;BME280;38631;47.572;10.704;2022-10-16T12:49:50;92924.94;;;18.89;57.05
52735;BME280;38631;47.572;10.704;2022-10-16T12:52:35;92919.22;;;19.07;55.57
52735;BME280;38631;47.572;10.704;2022-10-16T12:55:01;92913.66;;;18.99;55.69
52735;BME280;38631;47.572;10.704;2022-10-16T12:57:32;92916.00;;;19.01;55.09
52735;BME280;38631;47.572;10.704;2022-10-16T13:00:23;92914.44;;;19.00;53.77
52735;BME280;38631;47.572;10.704;2022-10-16T13:11:24;92912.63;;;19.04;53.61
52735;BME280;38631;47.572;10.704;2022-10-16T13:14:02;92920.16;;;19.14;55.24
52735;BME280;38631;47.572;10.704;2022-10-16T13:16:55;92915.13;;;19.29;55.37
52735;BME280;38631;47.572;10.704;2022-10-16T13:28:10;92918.84;;;19.08;55.52
52735;BME280;38631;47.572;10.704;2022-10-16T13:30:44;92918.28;;;18.71;55.56
52735;BME280;38631;47.572;10.704;2022-10-16T13:33:33;92907.13;;;19.00;53.12
52735;BME280;38631;47.572;10.704;2022-10-16T13:36:00;92918.84;;;19.08;54.78
52735;BME280;38631;47.572;10.704;2022-10-16T13:38:29;92906.88;;;18.90;54.55
52735;BME280;38631;47.572;10.704;2022-10-16T13:41:03;92916.16;;;19.08;53.42
52735;BME280;38631;47.572;10.704;2022-10-16T13:48:31;92921.81;;;18.87;55.09
52735;BME280;38631;47.572;10.704;2022-10-16T13:51:14;92917.56;;;18.86;55.34
52735;BME280;38631;47.572;10.704;2022-10-16T13:53:39;92923.56;;;19.11;54.17
52735;BME280;38631;47.572;10.704;2022-10-16T13:56:11;92920.09;;;18.95;55.08
52735;BME280;38631;47.572;10.704;2022-10-16T13:58:36;92922.19;;;19.02;55.84
52735;BME280;38631;47.572;10.704;2022-10-16T14:01:18;92920.09;;;18.95;56.52
52735;BME280;38631;47.572;10.704;2022-10-16T14:03:46;92914.69;;;18.95;56.26
52735;BME280;38631;47.572;10.704;2022-10-16T14:06:15;92917.63;;;19.06;55.86
52735;BME280;38631;47.572;10.704;2022-10-16T14:08:43;92924.00;;;18.97;55.23
52735;BME280;38631;47.572;10.704;2022-10-16T14:11:10;92920.00;;;18.91;55.75
52735;BME280;38631;47.572;10.704;2022-10-16T14:13:54;92926.75;;;18.85;57.21
52735;BME280;38631;47.572;10.704;2022-10-16T14:16:23;92921.13;;;18.90;56.91
52735;BME280;38631;47.572;10.704;2022-10-16T14:18:59;92928.84;;;19.08;56.14
52735;BME280;38631;47.572;10.704;2022-10-16T14:21:26;92934.50;;;19.03;55.37
52735;BME280;38631;47.572;10.704;2022-10-16T14:23:52;92932.84;;;18.98;56.12
52735;BME280;38631;47.572;10.704;2022-10-16T14:26:20;92923.47;;;18.92;56.83
52735;BME280;38631;47.572;10.704;2022-10-16T14:28:48;92923.47;;;18.92;57.18
52735;BME280;38631;47.572;10.704;2022-10-16T14:31:34;92936.22;;;18.79;58.51
52735;BME280;38631;47.572;10.704;2022-10-16T14:34:01;92928.84;;;18.76;58.48
52735;BME280;38631;47.572;10.704;2022-10-16T14:36:27;92934.34;;;18.67;59.32